Time;durP1;ratioP1;P1;durP2;ratioP2;P2;SDS_P1;SDS_P2;PMS_P1;PMS_P2;Temp;Humidity;BMP_temperature;BMP_pressure;BME280_temperature;BME280_humidity;BME280_pressure;Samples;Min_cycle;Max_cycle;Signal;HPM_P1;HPM_P2
2023/01/29 00:01:03;;;;;;;7.85;6.25;;;;;;;1.85;53.21;102005.13;4194310;28;20037;-69
2023/01/29 00:03:05;;;;;;;8.98;5.70;;;;;;;1.89;52.45;102007.16;4191317;28;20487;-69
2023/01/29 00:05:09;;;;;;;8.65;5.43;;;;;;;1.99;52.01;102005.28;4163904;28;20121;-69
2023/01/29 00:07:28;;;;;;;9.30;5.88;;;;;;;1.81;52.13;102012.50;4189266;28;20453;-71
2023/01/29 00:09:31;;;;;;;8.48;5.13;;;;;;;1.84;51.79;102010.16;4193221;28;20037;-69
2023/01/29 00:11:35;;;;;;;7.25;5.20;;;;;;;1.88;51.29;102004.47;4194357;28;20037;-69
2023/01/29 00:13:39;;;;;;;6.43;4.78;;;;;;;1.77;51.68;102002.78;4176690;28;20095;-69
2023/01/29 00:15:42;;;;;;;6.68;4.68;;;;;;;1.64;52.39;101995.88;4186526;28;20123;-69
2023/01/29 00:17:45;;;;;;;7.72;4.88;;;;;;;1.63;52.56;102002.66;4194322;28;20082;-69
2023/01/29 00:19:48;;;;;;;8.75;5.32;;;;;;;1.77;52.71;101993.44;4192985;28;20585;-69
2023/01/29 00:21:50;;;;;;;7.90;5.82;;;;;;;1.79;52.13;101996.13;4192814;28;20044;-70
2023/01/29 00:23:55;;;;;;;8.05;5.13;;;;;;;1.71;52.50;101983.63;4198111;28;20067;-69
2023/01/29 00:25:59;;;;;;;6.43;4.65;;;;;;;1.66;52.87;101984.94;4199842;28;20040;-71
2023/01/29 00:28:02;;;;;;;6.97;4.63;;;;;;;1.62;53.34;101982.03;4197352;28;20086;-69
2023/01/29 00:30:11;;;;;;;7.30;5.20;;;;;;;1.64;53.74;101990.75;4194747;28;20505;-69
2023/01/29 00:32:15;;;;;;;6.45;4.75;;;;;;;1.62;53.75;101993.19;4193088;28;20087;-69
2023/01/29 00:34:18;;;;;;;9.60;6.10;;;;;;;1.60;52.92;101994.72;4186288;28;20047;-70
2023/01/29 00:36:21;;;;;;;8.27;5.15;;;;;;;1.55;53.66;101996.06;4174611;28;20067;-69
2023/01/29 00:38:24;;;;;;;8.20;5.90;;;;;;;1.53;53.51;101997.59;4193673;28;20037;-69
2023/01/29 00:40:27;;;;;;;7.32;5.47;;;;;;;1.56;53.59;101997.84;4195048;28;20099;-69
2023/01/29 00:44:58;;;;;;;9.23;5.30;;;;;;;1.55;53.67;101994.38;4189767;28;20072;-69
2023/01/29 00:47:03;;;;;;;7.28;5.40;;;;;;;1.54;53.32;101984.03;4184144;28;20128;-69
2023/01/29 00:49:07;;;;;;;7.72;5.10;;;;;;;1.52;53.72;101985.56;4195098;28;20071;-69
2023/01/29 00:51:09;;;;;;;8.65;6.07;;;;;;;1.63;53.67;101996.63;4196974;28;20063;-69
2023/01/29 00:53:12;;;;;;;8.73;6.22;;;;;;;1.60;53.50;101997.28;4195402;28;20032;-69
2023/01/29 00:55:15;;;;;;;8.35;6.18;;;;;;;1.57;53.68;102003.06;4195951;28;20122;-69
2023/01/29 00:57:18;;;;;;;8.38;6.63;;;;;;;1.54;53.64;102004.53;4186416;28;20259;-68
2023/01/29 00:59:21;;;;;;;10.77;6.88;;;;;;;1.52;53.57;101998.38;4196837;28;20060;-69
2023/01/29 01:03:42;;;;;;;8.52;6.28;;;;;;;1.62;53.11;101999.97;4185726;28;20441;-69
2023/01/29 01:05:45;;;;;;;11.30;6.95;;;;;;;1.59;53.50;102013.44;4195222;28;20047;-68
2023/01/29 01:07:50;;;;;;;9.32;6.35;;;;;;;1.62;53.46;102018.81;4197884;28;20128;-69
2023/01/29 01:12:15;;;;;;;13.25;6.30;;;;;;;1.71;52.69;102011.81;4189869;28;20501;-69
2023/01/29 01:14:19;;;;;;;10.63;7.00;;;;;;;1.67;52.81;102009.78;4191874;28;20054;-69
2023/01/29 01:16:24;;;;;;;8.07;4.78;;;;;;;1.69;52.06;102012.47;4195514;28;20043;-69
2023/01/29 01:18:29;;;;;;;7.38;5.35;;;;;;;1.57;52.42;102017.56;4194767;28;20098;-69
2023/01/29 01:20:35;;;;;;;9.40;5.50;;;;;;;1.66;52.65;102018.25;4194242;28;20199;-70
2023/01/29 01:22:38;;;;;;;7.85;5.80;;;;;;;1.69;52.48;102015.91;4194839;28;20062;-70
2023/01/29 01:24:41;;;;;;;8.10;5.10;;;;;;;1.66;52.34;102010.56;4191739;28;20632;-69
2023/01/29 01:26:44;;;;;;;12.88;6.25;;;;;;;1.66;52.79;102004.56;4195181;28;20123;-70
2023/01/29 01:28:47;;;;;;;8.32;5.47;;;;;;;1.77;52.58;102005.34;4190370;28;20048;-69
2023/01/29 01:30:50;;;;;;;10.13;6.47;;;;;;;1.82;51.71;102011.72;4182948;28;20048;-69
2023/01/29 01:32:53;;;;;;;6.93;4.50;;;;;;;1.73;52.22;102004.25;4195108;28;20040;-69
2023/01/29 01:34:56;;;;;;;7.30;5.43;;;;;;;1.68;52.21;101996.22;4189892;28;20036;-69
2023/01/29 01:37:00;;;;;;;7.07;4.72;;;;;;;1.73;52.02;102002.56;4188209;28;20033;-69
2023/01/29 01:39:03;;;;;;;7.40;5.07;;;;;;;1.55;51.88;102002.06;4190790;28;20037;-69
2023/01/29 01:41:06;;;;;;;7.25;4.95;;;;;;;1.49;52.85;102001.63;4174060;28;20052;-69
2023/01/29 01:43:10;;;;;;;7.88;5.43;;;;;;;1.54;52.56;101999.41;4195144;28;20045;-69
2023/01/29 01:45:19;;;;;;;7.10;4.70;;;;;;;1.73;52.15;102000.00;4194259;28;20036;-69
2023/01/29 01:47:27;;;;;;;9.02;5.28;;;;;;;1.68;52.00;102002.97;4195080;28;20040;-70
2023/01/29 01:49:31;;;;;;;7.60;5.78;;;;;;;1.46;52.92;102006.50;4182938;28;20395;-69
2023/01/29 01:51:38;;;;;;;7.60;4.97;;;;;;;1.50;52.99;102007.63;4193902;28;20032;-69
2023/01/29 01:53:47;;;;;;;10.95;5.03;;;;;;;1.43;52.98;102005.38;4194897;28;20036;-69
2023/01/29 01:55:56;;;;;;;6.90;4.80;;;;;;;1.53;52.68;102003.66;4174421;28;20033;-69
2023/01/29 01:58:05;;;;;;;8.40;5.80;;;;;;;1.55;52.11;101996.94;4191322;28;20041;-69
2023/01/29 02:00:11;;;;;;;7.82;5.50;;;;;;;1.49;52.63;101995.56;4191486;28;20055;-69
2023/01/29 02:09:35;;;;;;;9.40;4.97;;;;;;;1.34;53.79;101996.22;4192317;28;20036;-69
2023/01/29 02:11:38;;;;;;;8.55;5.47;;;;;;;1.37;53.84;101995.53;4176701;28;20099;-69
2023/01/29 02:13:42;;;;;;;7.93;5.00;;;;;;;1.44;53.89;101982.41;4192806;28;20041;-69
2023/01/29 02:15:47;;;;;;;7.13;4.68;;;;;;;1.44;53.59;101984.09;4189074;28;20572;-70
2023/01/29 02:17:50;;;;;;;8.80;5.95;;;;;;;1.49;53.78;101981.13;4194349;28;20047;-69
2023/01/29 02:20:07;;;;;;;9.13;4.80;;;;;;;1.46;53.99;101975.75;4171530;28;20045;-69
2023/01/29 02:22:35;;;;;;;8.23;4.82;;;;;;;1.46;54.10;101980.88;4194728;28;20050;-70
2023/01/29 02:24:59;;;;;;;8.60;5.70;;;;;;;1.62;53.26;101984.59;4196074;28;20037;-69
2023/01/29 02:27:09;;;;;;;7.13;5.18;;;;;;;1.63;52.88;101978.69;4195720;28;20041;-69
2023/01/29 02:29:26;;;;;;;7.88;5.68;;;;;;;1.52;52.95;101972.75;4192610;28;20036;-69
2023/01/29 02:31:37;;;;;;;7.05;5.60;;;;;;;1.49;53.07;101975.06;4177303;28;20128;-69
2023/01/29 02:33:52;;;;;;;9.95;6.43;;;;;;;1.41;53.63;101955.69;4193922;28;20059;-69
2023/01/29 02:36:01;;;;;;;8.52;6.13;;;;;;;1.35;53.46;101962.13;4201426;28;20039;-69
2023/01/29 02:38:12;;;;;;;7.40;5.20;;;;;;;1.36;53.89;101960.47;4189480;28;20040;-69
2023/01/29 02:40:25;;;;;;;10.50;6.13;;;;;;;1.34;53.95;101959.44;4190058;28;20464;-69
2023/01/29 02:42:35;;;;;;;9.35;5.95;;;;;;;1.37;54.03;101959.66;4187548;28;20044;-69
2023/01/29 02:44:47;;;;;;;12.38;5.95;;;;;;;1.50;53.62;101958.94;4178002;28;20077;-69
2023/01/29 02:46:58;;;;;;;7.75;5.40;;;;;;;1.35;53.37;101951.00;4181116;28;20041;-69
2023/01/29 02:49:09;;;;;;;10.38;5.75;;;;;;;1.26;54.08;101952.88;4194382;28;20148;-69
2023/01/29 02:51:19;;;;;;;8.77;5.70;;;;;;;1.25;54.12;101959.63;4190452;28;20043;-69
2023/01/29 02:53:29;;;;;;;9.35;6.22;;;;;;;1.19;53.96;101954.06;4191029;28;20036;-69
2023/01/29 02:55:36;;;;;;;8.43;5.45;;;;;;;1.18;53.92;101947.13;4190505;28;20056;-69
2023/01/29 02:57:43;;;;;;;9.00;5.78;;;;;;;1.31;54.56;101949.84;4176578;28;20041;-69
2023/01/29 02:59:53;;;;;;;8.45;5.80;;;;;;;1.28;53.76;101954.75;4194901;28;20048;-69
2023/01/29 03:02:02;;;;;;;10.15;6.47;;;;;;;1.20;53.67;101958.41;4188086;28;20064;-68
2023/01/29 03:04:10;;;;;;;8.02;5.30;;;;;;;1.21;54.26;101958.53;4195402;28;20032;-69
2023/01/29 03:06:21;;;;;;;7.53;5.90;;;;;;;1.24;54.24;101957.84;4190713;28;20123;-69
2023/01/29 03:08:41;;;;;;;8.90;6.60;;;;;;;1.13;54.53;101958.72;4194849;28;20103;-69
2023/01/29 03:10:51;;;;;;;8.50;6.18;;;;;;;1.04;54.94;101957.22;4195301;28;20044;-70
2023/01/29 03:13:00;;;;;;;9.18;6.15;;;;;;;1.00;54.61;101959.44;4187232;28;20041;-70
2023/01/29 03:15:12;;;;;;;7.78;5.72;;;;;;;0.98;55.18;101961.88;4188227;28;20068;-69
2023/01/29 03:17:22;;;;;;;9.38;5.75;;;;;;;1.01;55.00;101963.78;4189916;28;20055;-70
2023/01/29 03:19:34;;;;;;;9.45;6.70;;;;;;;1.01;54.91;101967.25;4192650;28;20040;-69
2023/01/29 03:21:58;;;;;;;9.15;6.82;;;;;;;0.97;54.98;101961.75;4175644;28;20136;-69
2023/01/29 03:33:42;;;;;;;;;;;;;;;0.86;55.41;101984.88;4180696;28;20044;-69
2023/01/29 03:35:51;;;;;;;10.02;6.85;;;;;;;0.89;55.51;101986.75;4184807;28;20459;-69
2023/01/29 03:37:55;;;;;;;8.93;6.20;;;;;;;0.93;55.11;101981.09;4192639;28;20056;-69
2023/01/29 03:39:58;;;;;;;9.40;6.05;;;;;;;0.93;55.65;101981.09;4183281;28;20037;-69
2023/01/29 03:42:09;;;;;;;10.68;7.10;;;;;;;0.94;55.22;101982.03;4189730;28;20042;-68
2023/01/29 03:44:17;;;;;;;10.95;6.88;;;;;;;0.94;55.29;101988.03;4191966;28;20037;-69
2023/01/29 03:46:28;;;;;;;13.30;7.25;;;;;;;0.99;55.83;101981.59;4193698;28;20415;-69
2023/01/29 03:48:36;;;;;;;10.95;7.93;;;;;;;1.03;55.30;101983.59;4189926;28;20136;-69
2023/01/29 03:50:52;;;;;;;9.30;6.82;;;;;;;1.14;54.62;101986.09;4193419;28;20033;-69
2023/01/29 03:53:00;;;;;;;;;;;;;;;1.00;55.08;101983.38;4207886;28;20089;-71
2023/01/29 03:55:13;;;;;;;11.57;6.47;;;;;;;0.97;55.03;101977.13;4177574;28;19952;-69
2023/01/29 03:57:26;;;;;;;11.90;6.60;;;;;;;1.00;55.41;101991.06;4197056;28;20036;-69
2023/01/29 03:59:39;;;;;;;11.13;7.00;;;;;;;1.06;55.09;101989.75;4192151;28;20045;-69
2023/01/29 04:02:00;;;;;;;11.15;6.88;;;;;;;1.09;54.96;101993.44;4195912;28;20442;-69
2023/01/29 04:04:10;;;;;;;11.10;7.32;;;;;;;1.04;55.32;101993.06;4196107;28;20082;-69
2023/01/29 04:06:18;;;;;;;10.50;7.50;;;;;;;1.00;55.19;101993.59;4194764;28;20075;-69
2023/01/29 04:08:40;;;;;;;11.65;7.65;;;;;;;0.96;55.84;101999.25;4195856;28;20502;-69
2023/01/29 04:10:47;;;;;;;10.85;7.53;;;;;;;1.04;55.62;102002.44;4196935;28;20037;-69
2023/01/29 04:12:56;;;;;;;9.88;7.32;;;;;;;1.14;55.24;102001.47;4190173;28;20043;-69
2023/01/29 04:15:01;;;;;;;11.50;8.10;;;;;;;1.14;54.90;102007.50;4188880;28;20490;-69
2023/01/29 04:17:11;;;;;;;9.85;7.00;;;;;;;1.14;55.05;101997.25;4191799;28;20152;-69
2023/01/29 04:19:30;;;;;;;10.95;6.93;;;;;;;1.13;54.85;101994.56;4195241;28;20041;-69
2023/01/29 04:21:36;;;;;;;11.70;8.07;;;;;;;1.16;55.06;101989.69;4193221;28;20109;-69
2023/01/29 04:23:38;;;;;;;;;;;;;;;1.19;54.84;101989.91;4197129;28;20040;-69
2023/01/29 04:25:49;;;;;;;11.68;7.80;;;;;;;1.29;54.57;101987.28;4179879;28;19970;-69
2023/01/29 04:28:01;;;;;;;13.35;8.20;;;;;;;1.20;54.58;101986.59;4191019;28;20502;-68
2023/01/29 04:30:18;;;;;;;12.43;8.52;;;;;;;1.15;55.01;101975.97;4182075;28;20037;-69
2023/01/29 04:32:28;;;;;;;10.43;7.20;;;;;;;1.11;55.05;101975.63;4181989;28;20568;-69
2023/01/29 04:34:40;;;;;;;14.77;8.00;;;;;;;1.33;54.51;101979.06;4181600;28;20531;-68
2023/01/29 04:36:55;;;;;;;10.27;7.60;;;;;;;1.21;54.04;101984.16;4186947;28;20045;-69
2023/01/29 04:39:07;;;;;;;10.38;7.03;;;;;;;1.20;54.25;101989.16;4190296;28;20044;-69
2023/01/29 04:41:21;;;;;;;12.30;8.32;;;;;;;1.28;53.64;101995.72;4197539;28;20098;-69
2023/01/29 04:43:29;;;;;;;10.68;7.32;;;;;;;1.13;54.44;101989.44;4196248;28;20037;-69
2023/01/29 04:45:45;;;;;;;10.55;7.05;;;;;;;1.06;54.72;101982.06;4189525;28;20499;-69
2023/01/29 04:47:57;;;;;;;9.73;7.07;;;;;;;1.17;54.63;101979.56;4192207;28;20043;-69
2023/01/29 04:50:09;;;;;;;11.43;7.47;;;;;;;1.13;54.37;101974.09;4191285;28;20047;-69
2023/01/29 04:52:20;;;;;;;11.15;7.55;;;;;;;1.20;54.32;101971.22;4193734;28;20037;-69
2023/01/29 04:54:32;;;;;;;9.98;7.10;;;;;;;1.01;54.22;101957.00;4186755;28;20059;-69
2023/01/29 04:56:41;;;;;;;13.18;7.68;;;;;;;0.89;54.92;101950.91;4188755;28;20041;-69
2023/01/29 04:58:49;;;;;;;10.32;7.10;;;;;;;0.85;55.83;101941.22;4191310;28;20070;-68
2023/01/29 05:00:54;;;;;;;10.48;6.65;;;;;;;0.84;56.16;101939.44;4194017;28;22029;-69
2023/01/29 05:03:00;;;;;;;9.68;7.10;;;;;;;0.83;55.99;101947.88;4195143;28;20044;-69
2023/01/29 05:05:04;;;;;;;11.55;8.07;;;;;;;0.89;56.03;101950.91;4189185;28;20140;-70
2023/01/29 05:07:11;;;;;;;12.55;7.30;;;;;;;0.89;55.97;101950.91;4191998;28;20043;-69
2023/01/29 05:09:16;;;;;;;10.80;7.80;;;;;;;0.90;55.59;101945.03;4193044;28;20067;-69
2023/01/29 05:11:20;;;;;;;10.50;7.20;;;;;;;0.85;56.26;101937.00;4189980;28;20036;-70
2023/01/29 05:13:25;;;;;;;12.35;8.20;;;;;;;0.83;56.10;101932.53;4190514;28;20426;-69
2023/01/29 05:15:34;;;;;;;14.57;8.52;;;;;;;0.86;56.35;101949.03;4196100;28;20059;-69
2023/01/29 05:17:36;;;;;;;15.93;8.32;;;;;;;0.87;56.36;101955.03;4188766;28;20047;-69
2023/01/29 05:19:41;;;;;;;12.45;8.43;;;;;;;0.91;56.32;101962.19;4179766;28;20045;-69
2023/01/29 05:21:46;;;;;;;13.27;8.10;;;;;;;0.87;56.40;101948.22;4197287;28;20039;-68
2023/01/29 05:24:08;;;;;;;13.38;9.10;;;;;;;0.85;56.65;101961.72;4185576;28;20128;-69
2023/01/29 05:28:31;;;;;;;10.65;6.95;;;;;;;0.82;56.50;101961.47;4191094;28;20380;-69
2023/01/29 05:30:37;;;;;;;13.80;8.18;;;;;;;0.80;56.89;101968.13;4195144;28;20037;-69
2023/01/29 05:32:40;;;;;;;13.48;9.43;;;;;;;0.80;56.51;101970.69;4189848;28;20371;-69
2023/01/29 05:34:44;;;;;;;13.02;9.43;;;;;;;0.81;56.23;101977.59;4188616;28;20099;-69
2023/01/29 05:36:47;;;;;;;11.80;8.40;;;;;;;0.81;56.30;101985.28;4186959;28;20091;-69
2023/01/29 05:38:50;;;;;;;14.73;9.20;;;;;;;0.84;56.79;101988.06;4184373;28;20033;-69
2023/01/29 05:40:53;;;;;;;12.88;8.73;;;;;;;0.89;56.18;101994.44;4187360;28;20045;-69
2023/01/29 05:42:56;;;;;;;10.95;8.25;;;;;;;0.91;56.00;101982.66;4190368;28;20414;-69
2023/01/29 05:44:59;;;;;;;11.75;8.85;;;;;;;0.87;55.89;101981.50;4190025;28;20033;-69
2023/01/29 05:47:02;;;;;;;10.80;7.88;;;;;;;0.86;56.53;101973.72;4196588;28;20570;-68
2023/01/29 05:49:05;;;;;;;11.52;8.27;;;;;;;0.87;56.70;101973.84;4194551;28;20541;-69
2023/01/29 05:51:10;;;;;;;13.20;8.57;;;;;;;0.91;56.91;101972.44;4195632;28;20032;-69
2023/01/29 05:53:12;;;;;;;13.68;8.57;;;;;;;0.92;57.33;101974.22;4179012;28;20045;-69
2023/01/29 05:55:15;;;;;;;13.05;8.02;;;;;;;0.93;56.88;101975.97;4191709;28;20032;-69
2023/01/29 05:57:18;;;;;;;11.75;7.90;;;;;;;0.93;56.84;101975.97;4190624;28;20040;-69
2023/01/29 05:59:21;;;;;;;10.90;8.23;;;;;;;0.95;57.43;101970.97;4193185;28;20033;-69
2023/01/29 06:01:26;;;;;;;12.70;8.63;;;;;;;0.96;57.39;101971.09;4206372;28;20059;-69
2023/01/29 06:03:29;;;;;;;13.15;8.68;;;;;;;0.96;57.08;101976.22;4179001;28;20106;-69
2023/01/29 06:05:32;;;;;;;12.88;8.10;;;;;;;0.98;57.07;101976.34;4194771;28;20040;-69
2023/01/29 06:07:36;;;;;;;13.32;9.13;;;;;;;1.02;57.38;101965.56;4190848;28;20044;-69
2023/01/29 06:09:40;;;;;;;13.63;8.20;;;;;;;1.02;57.40;101960.44;4189759;28;20048;-69
2023/01/29 06:11:43;;;;;;;11.25;7.32;;;;;;;1.01;57.23;101959.56;4193932;28;20032;-69
2023/01/29 06:13:46;;;;;;;11.93;8.88;;;;;;;1.03;57.16;101965.69;4186371;28;20049;-69
2023/01/29 06:15:49;;;;;;;13.30;8.75;;;;;;;1.02;56.88;101966.47;4188287;28;20041;-69
2023/01/29 06:17:53;;;;;;;14.18;8.98;;;;;;;1.04;56.98;101966.59;4192628;28;20078;-69
2023/01/29 06:19:56;;;;;;;14.48;7.88;;;;;;;1.01;57.90;101974.91;4195476;28;20048;-69
2023/01/29 06:21:59;;;;;;;12.57;8.43;;;;;;;1.04;57.74;101982.84;4194546;28;20049;-69
2023/01/29 06:24:03;;;;;;;13.15;8.95;;;;;;;1.12;57.07;101992.78;4197567;28;20040;-69
2023/01/29 06:26:09;;;;;;;15.60;9.75;;;;;;;1.12;56.80;101979.97;4186221;28;20069;-69
2023/01/29 06:28:11;;;;;;;11.90;8.73;;;;;;;1.08;57.16;101983.06;4180284;28;20493;-69
2023/01/29 06:30:14;;;;;;;12.65;9.27;;;;;;;1.04;57.23;101985.41;4190764;28;20036;-69
2023/01/29 06:32:18;;;;;;;14.75;10.32;;;;;;;1.04;57.42;101984.50;4179241;28;20047;-69
2023/01/29 06:34:21;;;;;;;11.63;8.18;;;;;;;1.08;57.44;101975.38;4195745;28;20029;-69
2023/01/29 06:36:23;;;;;;;15.05;8.85;;;;;;;1.11;57.63;101976.53;4193934;28;20118;-69
2023/01/29 06:38:26;;;;;;;14.43;8.60;;;;;;;1.14;57.54;101963.97;4193676;28;20048;-69
2023/01/29 06:40:30;;;;;;;11.75;8.68;;;;;;;1.17;57.67;101956.50;4192082;28;20045;-69
2023/01/29 06:42:35;;;;;;;13.80;8.50;;;;;;;1.18;57.16;101970.19;4191910;28;20048;-70
2023/01/29 06:44:37;;;;;;;11.80;8.48;;;;;;;1.17;57.95;101965.88;4188342;28;20430;-69
2023/01/29 06:46:40;;;;;;;12.05;8.32;;;;;;;1.14;57.56;101961.41;4190484;28;20473;-70
2023/01/29 06:48:43;;;;;;;13.25;8.88;;;;;;;1.13;57.28;101966.41;4193199;28;20090;-69
2023/01/29 06:50:48;;;;;;;11.77;8.73;;;;;;;1.07;57.55;101958.22;4192846;28;20044;-70
2023/01/29 06:52:51;;;;;;;12.38;8.32;;;;;;;1.05;58.02;101963.22;4187832;28;20041;-70
2023/01/29 06:54:53;;;;;;;13.35;8.80;;;;;;;1.04;57.98;101958.91;4181750;28;20406;-70
2023/01/29 06:56:58;;;;;;;15.73;9.63;;;;;;;1.03;57.78;101963.13;4186829;28;20633;-70
2023/01/29 06:59:00;;;;;;;10.32;7.35;;;;;;;1.02;57.80;101963.91;4187013;28;20044;-69
2023/01/29 07:01:05;;;;;;;12.00;8.02;;;;;;;1.01;57.25;101972.34;4177411;28;20427;-70
2023/01/29 07:03:09;;;;;;;11.60;7.80;;;;;;;1.00;57.18;101979.94;4191857;28;20044;-69
2023/01/29 07:05:12;;;;;;;12.30;8.30;;;;;;;0.99;56.99;101976.47;4192807;28;20317;-69
2023/01/29 07:07:15;;;;;;;12.20;8.43;;;;;;;1.00;56.98;101978.25;4195251;28;20045;-69
2023/01/29 07:09:18;;;;;;;13.15;8.25;;;;;;;0.99;56.99;101979.03;4194645;28;20068;-68
2023/01/29 07:11:21;;;;;;;11.95;8.43;;;;;;;0.97;56.63;101980.56;4193154;28;20036;-68
2023/01/29 07:13:25;;;;;;;13.23;8.60;;;;;;;0.94;56.53;101987.13;4192362;28;20032;-68
2023/01/29 07:15:28;;;;;;;10.35;7.68;;;;;;;0.97;56.80;101983.13;4194943;28;20040;-69
2023/01/29 07:17:31;;;;;;;12.38;8.27;;;;;;;0.99;56.61;101986.72;4192111;28;20494;-68
2023/01/29 07:19:34;;;;;;;10.98;7.72;;;;;;;0.97;56.35;101977.13;4186518;28;20049;-69
2023/01/29 07:21:37;;;;;;;13.35;8.48;;;;;;;1.01;56.67;101976.59;4195341;28;20059;-69
2023/01/29 07:23:40;;;;;;;12.25;8.18;;;;;;;1.04;56.84;101979.41;4196890;28;20040;-69
2023/01/29 07:25:43;;;;;;;11.85;8.07;;;;;;;1.04;57.19;101975.16;4188476;28;20033;-69
2023/01/29 07:27:46;;;;;;;12.52;8.95;;;;;;;1.08;57.12;101977.94;4195017;28;20155;-69
2023/01/29 07:29:50;;;;;;;11.57;8.40;;;;;;;1.14;56.51;101976.75;4182506;28;20508;-69
2023/01/29 07:31:53;;;;;;;12.52;8.38;;;;;;;1.14;56.26;101968.16;4192146;28;20055;-69
2023/01/29 07:33:56;;;;;;;13.57;8.85;;;;;;;1.09;56.28;101977.19;4189675;28;20058;-70
2023/01/29 07:35:59;;;;;;;13.40;8.23;;;;;;;1.13;56.13;101979.22;4194129;28;20047;-69
2023/01/29 07:38:02;;;;;;;15.35;8.35;;;;;;;1.14;55.99;101978.41;4192168;28;20036;-69
2023/01/29 07:40:10;;;;;;;13.00;8.13;;;;;;;1.08;55.87;101983.06;4184632;28;20040;-69
2023/01/29 07:42:12;;;;;;;12.43;7.97;;;;;;;1.05;56.16;101986.28;4189023;28;20029;-69
2023/01/29 07:44:15;;;;;;;10.73;7.55;;;;;;;1.06;56.52;101987.19;4190050;28;20040;-68
2023/01/29 07:46:20;;;;;;;12.65;8.27;;;;;;;1.09;56.46;101984.88;4190182;28;20035;-70
2023/01/29 07:48:23;;;;;;;18.88;11.40;;;;;;;1.03;56.25;101992.97;4190511;28;20032;-70
2023/01/29 07:50:26;;;;;;;21.85;15.65;;;;;;;1.07;55.95;101999.19;4194212;28;20170;-68
2023/01/29 07:52:31;;;;;;;24.83;17.07;;;;;;;1.09;56.22;102002.78;4181265;28;20434;-73
2023/01/29 07:54:34;;;;;;;27.40;19.00;;;;;;;0.96;56.05;102000.94;4174682;28;20080;-67
2023/01/29 07:56:36;;;;;;;31.50;23.20;;;;;;;0.91;55.99;102003.16;4186784;28;20045;-63
2023/01/29 07:58:39;;;;;;;37.92;27.95;;;;;;;0.91;56.21;102008.28;4186820;28;20048;-64
2023/01/29 08:00:42;;;;;;;31.02;23.13;;;;;;;0.91;56.13;102015.94;4190428;28;20087;-65
2023/01/29 08:02:46;;;;;;;25.42;17.88;;;;;;;1.01;56.09;102010.78;4193518;28;20044;-61
2023/01/29 08:04:49;;;;;;;13.32;10.27;;;;;;;1.11;55.65;102019.16;4168829;28;20128;-62
2023/01/29 08:06:52;;;;;;;17.20;10.35;;;;;;;1.14;55.41;102011.72;4186805;28;20434;-62
2023/01/29 08:08:56;;;;;;;12.50;9.07;;;;;;;1.13;55.29;102015.06;4193897;28;20036;-62
2023/01/29 08:11:01;;;;;;;10.90;7.80;;;;;;;1.10;55.27;102014.84;4194091;28;20102;-62
2023/01/29 08:13:05;;;;;;;12.18;8.82;;;;;;;1.06;55.59;102007.69;4188362;28;20291;-62
2023/01/29 08:15:09;;;;;;;11.10;8.30;;;;;;;1.07;56.30;102018.03;4189247;28;20052;-62
2023/01/29 08:17:12;;;;;;;12.73;9.32;;;;;;;1.12;56.37;102018.38;4188301;28;20437;-61
2023/01/29 08:19:16;;;;;;;12.23;8.90;;;;;;;1.16;56.15;102015.31;4190824;28;20035;-62
2023/01/29 08:21:19;;;;;;;15.32;9.32;;;;;;;1.16;55.97;102020.44;4190603;28;20036;-61
2023/01/29 08:23:22;;;;;;;13.07;8.60;;;;;;;1.18;56.22;102018.84;4193509;28;20037;-62
2023/01/29 08:25:25;;;;;;;12.55;8.48;;;;;;;1.21;56.21;102019.09;4192241;28;20090;-62
2023/01/29 08:27:28;;;;;;;13.70;9.25;;;;;;;1.27;56.23;102023.81;4192810;28;20075;-62
2023/01/29 08:29:31;;;;;;;13.88;9.70;;;;;;;1.27;55.62;102014.47;4193981;28;20043;-62
2023/01/29 08:31:34;;;;;;;18.27;10.70;;;;;;;1.41;55.47;102012.06;4193565;28;20041;-61
2023/01/29 08:33:37;;;;;;;14.10;10.80;;;;;;;1.51;54.97;102005.19;4193039;28;20041;-61
2023/01/29 08:35:42;;;;;;;12.95;10.07;;;;;;;1.67;53.79;102020.06;4193822;28;20041;-62
2023/01/29 08:37:52;;;;;;;17.40;10.52;;;;;;;1.64;53.38;102013.81;4192577;28;20485;-62
2023/01/29 08:39:55;;;;;;;14.90;9.15;;;;;;;1.56;53.53;102013.22;4193607;28;20428;-62
2023/01/29 08:41:58;;;;;;;14.68;9.05;;;;;;;1.59;53.35;102008.31;4196055;28;20063;-62
2023/01/29 08:44:03;;;;;;;14.30;9.45;;;;;;;1.41;54.54;102019.75;4194391;28;20032;-62
2023/01/29 08:46:07;;;;;;;14.52;10.02;;;;;;;1.45;54.72;102026.91;4194943;28;20025;-62
2023/01/29 08:48:10;;;;;;;13.93;9.32;;;;;;;1.67;54.26;102030.31;4197023;28;20074;-62
2023/01/29 08:50:13;;;;;;;13.68;8.52;;;;;;;1.54;54.76;102036.16;4196292;28;20581;-62
2023/01/29 08:52:18;;;;;;;13.55;8.30;;;;;;;1.54;55.07;102042.97;4192520;28;20048;-62
2023/01/29 08:54:21;;;;;;;14.35;10.68;;;;;;;1.69;54.90;102040.66;4190894;28;20232;-62
2023/01/29 08:56:25;;;;;;;14.18;9.65;;;;;;;1.72;54.38;102038.34;4191140;28;20025;-62
2023/01/29 08:58:28;;;;;;;11.90;8.15;;;;;;;1.69;54.34;102031.28;4192597;28;20048;-62
2023/01/29 09:00:32;;;;;;;11.85;8.55;;;;;;;1.73;54.73;102022.19;4192163;28;20493;-62
2023/01/29 09:02:34;;;;;;;14.75;9.07;;;;;;;1.74;54.19;102006.91;4193314;28;20044;-62
2023/01/29 09:04:37;;;;;;;13.50;8.25;;;;;;;1.79;55.22;102002.13;4188374;28;20653;-62
2023/01/29 09:06:40;;;;;;;13.85;9.18;;;;;;;1.98;56.53;101986.44;4190288;28;20055;-62
2023/01/29 09:08:44;;;;;;;12.73;8.57;;;;;;;2.08;55.29;101965.78;4192124;28;20502;-62
2023/01/29 09:10:47;;;;;;;12.63;8.40;;;;;;;2.10;54.41;101965.91;4191006;28;20052;-62
2023/01/29 09:12:50;;;;;;;14.50;9.75;;;;;;;2.09;54.58;101959.00;4193453;28;20032;-62
2023/01/29 09:14:53;;;;;;;12.88;9.23;;;;;;;2.04;54.42;101961.22;4174614;28;20450;-62
2023/01/29 09:16:56;;;;;;;16.48;10.02;;;;;;;2.12;54.39;101963.44;4191627;28;20040;-62
2023/01/29 09:18:58;;;;;;;14.30;10.40;;;;;;;2.24;53.37;101956.66;4193278;28;20075;-62
2023/01/29 09:21:02;;;;;;;14.93;8.82;;;;;;;2.22;52.89;101955.63;4189834;28;20701;-62
2023/01/29 09:23:06;;;;;;;17.73;10.93;;;;;;;2.12;53.54;101954.09;4192649;28;20052;-62
2023/01/29 09:25:10;;;;;;;15.23;10.43;;;;;;;2.00;53.51;101960.88;4192156;28;20498;-62
2023/01/29 09:27:13;;;;;;;17.75;10.70;;;;;;;1.97;54.08;101960.66;4170719;28;20506;-62
2023/01/29 09:29:16;;;;;;;16.75;9.85;;;;;;;1.84;54.31;101969.13;4191899;28;20098;-62
2023/01/29 09:31:19;;;;;;;15.88;9.43;;;;;;;1.86;54.38;101988.09;4192460;28;20033;-62
2023/01/29 09:33:23;;;;;;;15.85;10.88;;;;;;;1.83;54.04;101990.44;4188913;28;20040;-63
2023/01/29 09:35:26;;;;;;;17.50;10.52;;;;;;;1.88;54.40;101981.41;4189235;28;20094;-62
2023/01/29 09:37:29;;;;;;;13.68;9.82;;;;;;;1.91;54.18;101979.97;4191549;28;20404;-62
2023/01/29 09:39:32;;;;;;;14.25;10.27;;;;;;;2.06;54.43;101987.91;4191790;28;20044;-63
2023/01/29 09:41:50;;;;;;;14.60;9.85;;;;;;;2.11;53.71;101989.91;4190930;28;20041;-62
2023/01/29 09:43:57;;;;;;;14.18;8.90;;;;;;;1.90;54.32;102002.94;4191271;28;20110;-62
2023/01/29 09:46:05;;;;;;;15.70;10.25;;;;;;;1.96;54.49;102000.81;4190259;28;20106;-62
2023/01/29 09:48:12;;;;;;;16.35;10.80;;;;;;;2.00;54.05;102002.84;4191115;28;20037;-63
2023/01/29 09:50:19;;;;;;;15.80;9.77;;;;;;;2.05;53.69;102000.59;4190800;28;20043;-62
2023/01/29 09:52:26;;;;;;;15.98;10.75;;;;;;;2.07;53.87;102005.09;4173835;28;20050;-62
2023/01/29 09:54:32;;;;;;;12.93;9.57;;;;;;;2.09;54.51;102002.63;4190260;28;20041;-62
2023/01/29 09:56:35;;;;;;;17.67;10.65;;;;;;;2.03;54.18;102010.75;4187441;28;20394;-62
2023/01/29 09:58:42;;;;;;;14.57;9.20;;;;;;;1.87;53.54;102006.16;4189658;28;20406;-62
2023/01/29 10:00:56;;;;;;;19.65;10.80;;;;;;;1.96;53.53;102005.97;4192012;28;20040;-62
2023/01/29 10:03:19;;;;;;;;;;;;;;;1.89;54.17;102024.22;4191937;28;20063;-62
2023/01/29 10:05:37;;;;;;;15.50;10.23;;;;;;;1.91;55.02;102028.69;4182084;28;19928;-63
2023/01/29 10:08:09;;;;;;;17.70;10.60;;;;;;;1.87;54.77;102036.94;4191575;28;20106;-63
2023/01/29 10:10:35;;;;;;;14.73;9.85;;;;;;;1.90;55.14;102026.03;4193518;28;20050;-62
2023/01/29 10:12:57;;;;;;;15.75;10.20;;;;;;;1.94;54.99;102030.56;4194146;28;20064;-62
2023/01/29 10:15:13;;;;;;;14.88;10.38;;;;;;;1.96;54.67;102026.47;4194263;28;20123;-64